Time;durP1;ratioP1;P1;durP2;ratioP2;P2;SDS_P1;SDS_P2;PMS_P1;PMS_P2;Temp;Humidity;BMP_temperature;BMP_pressure;BME280_temperature;BME280_humidity;BME280_pressure;Samples;Min_cycle;Max_cycle;Signal;HPM_P1;HPM_P2
2022/03/19 00:00:22;;;;;;;6.82;4.28;;;;;;;;;;5059728;28;20020;-86
2022/03/19 00:02:47;;;;;;;11.00;5.72;;;;;;;;;;5061825;28;20499;-85
2022/03/19 00:05:13;;;;;;;10.80;5.57;;;;;;;;;;5059506;28;20475;-86
2022/03/19 00:07:42;;;;;;;9.52;5.82;;;;;;;;;;5065691;28;20025;-84
2022/03/19 00:10:09;;;;;;;8.98;5.22;;;;;;;;;;5054642;28;20120;-86
2022/03/19 00:12:39;;;;;;;7.90;4.65;;;;;;;;;;5054405;28;20111;-86
2022/03/19 00:15:06;;;;;;;7.63;3.63;;;;;;;;;;5059172;28;20107;-86
2022/03/19 00:17:32;;;;;;;9.90;5.30;;;;;;;;;;5048140;28;20051;-87
2022/03/19 00:19:57;;;;;;;6.75;4.05;;;;;;;;;;5057957;28;20116;-87
2022/03/19 00:22:23;;;;;;;8.52;4.35;;;;;;;;;;5064233;28;20460;-86
2022/03/19 00:24:48;;;;;;;8.90;4.90;;;;;;;;;;5058500;28;20025;-86
2022/03/19 00:27:14;;;;;;;8.43;4.88;;;;;;;;;;5053619;28;20037;-87
2022/03/19 00:29:39;;;;;;;7.53;4.50;;;;;;;;;;5067630;28;20029;-86
2022/03/19 00:32:05;;;;;;;9.73;4.47;;;;;;;;;;5065510;28;20119;-86
2022/03/19 00:34:32;;;;;;;7.38;4.65;;;;;;;;;;5070701;28;20040;-87
2022/03/19 00:36:58;;;;;;;9.40;4.75;;;;;;;;;;5056633;28;20055;-85
2022/03/19 00:39:24;;;;;;;9.13;5.05;;;;;;;;;;5050549;28;20041;-86
2022/03/19 00:41:49;;;;;;;6.22;4.43;;;;;;;;;;5054027;28;20507;-85
2022/03/19 00:44:15;;;;;;;8.98;4.82;;;;;;;;;;5070029;28;20024;-86
2022/03/19 00:46:40;;;;;;;7.53;4.28;;;;;;;;;;5065866;28;20032;-86
2022/03/19 00:49:06;;;;;;;8.63;4.57;;;;;;;;;;5052752;28;20029;-86
2022/03/19 00:51:32;;;;;;;5.95;3.80;;;;;;;;;;5051349;28;20025;-84
2022/03/19 00:53:58;;;;;;;6.68;4.30;;;;;;;;;;5060835;28;20032;-86
2022/03/19 00:56:24;;;;;;;6.22;3.75;;;;;;;;;;5057195;28;20021;-86
2022/03/19 00:58:49;;;;;;;5.05;2.72;;;;;;;;;;5054682;28;20020;-84
2022/03/19 01:01:15;;;;;;;5.28;2.95;;;;;;;;;;5068643;28;20024;-85
2022/03/19 01:03:40;;;;;;;7.72;3.20;;;;;;;;;;5059161;28;20041;-86
2022/03/19 01:06:06;;;;;;;6.63;3.42;;;;;;;;;;5057938;28;20028;-86
2022/03/19 01:08:31;;;;;;;4.75;2.95;;;;;;;;;;5049363;28;20108;-86
2022/03/19 01:10:57;;;;;;;5.93;3.58;;;;;;;;;;5061804;28;20072;-86
2022/03/19 01:13:22;;;;;;;8.30;6.68;;;;;;;;;;5057405;28;20055;-86
2022/03/19 01:15:48;;;;;;;13.13;5.72;;;;;;;;;;5061070;28;20032;-86
2022/03/19 01:18:13;;;;;;;9.93;6.00;;;;;;;;;;5058634;28;20065;-86
2022/03/19 01:20:40;;;;;;;8.90;5.38;;;;;;;;;;5054505;28;20108;-86
2022/03/19 01:23:05;;;;;;;11.07;5.55;;;;;;;;;;5061107;28;20029;-86
2022/03/19 01:25:31;;;;;;;10.80;6.55;;;;;;;;;;5066202;28;20531;-86
2022/03/19 01:27:56;;;;;;;13.05;5.25;;;;;;;;;;5062818;28;20025;-85
2022/03/19 01:30:22;;;;;;;8.52;4.93;;;;;;;;;;5056850;28;20446;-87
2022/03/19 01:32:49;;;;;;;9.73;5.20;;;;;;;;;;5060927;28;20024;-88
2022/03/19 01:35:16;;;;;;;8.25;5.00;;;;;;;;;;5059516;28;20479;-86
2022/03/19 01:37:42;;;;;;;10.27;5.60;;;;;;;;;;5056577;28;20033;-87
2022/03/19 01:40:10;;;;;;;11.57;4.88;;;;;;;;;;5057822;28;20499;-86
2022/03/19 01:42:39;;;;;;;5.70;3.72;;;;;;;;;;5056945;28;20024;-86
2022/03/19 01:45:08;;;;;;;10.07;5.18;;;;;;;;;;5061861;28;20032;-85
2022/03/19 01:47:33;;;;;;;6.97;4.78;;;;;;;;;;5069290;28;20483;-86
2022/03/19 01:49:59;;;;;;;6.57;4.10;;;;;;;;;;5064691;28;20048;-86
2022/03/19 01:52:25;;;;;;;8.40;4.28;;;;;;;;;;5064641;28;20044;-86
2022/03/19 01:54:52;;;;;;;8.95;3.95;;;;;;;;;;5069779;28;20093;-86
2022/03/19 01:57:21;;;;;;;5.80;3.83;;;;;;;;;;5065932;28;20024;-87
2022/03/19 01:59:48;;;;;;;7.15;4.38;;;;;;;;;;5056429;28;20477;-86
2022/03/19 02:02:14;;;;;;;7.85;3.95;;;;;;;;;;5050769;28;20036;-85
2022/03/19 02:04:41;;;;;;;7.15;3.50;;;;;;;;;;5068109;28;20040;-87
2022/03/19 02:07:09;;;;;;;5.72;3.45;;;;;;;;;;5056029;28;20027;-87
2022/03/19 02:09:35;;;;;;;5.65;3.92;;;;;;;;;;5063251;28;20032;-87
2022/03/19 02:12:02;;;;;;;5.25;3.60;;;;;;;;;;5055618;28;20051;-87
2022/03/19 02:14:27;;;;;;;9.60;4.57;;;;;;;;;;5058791;28;20032;-85
2022/03/19 02:16:53;;;;;;;5.75;3.95;;;;;;;;;;5053134;28;20029;-86
2022/03/19 02:19:19;;;;;;;6.40;3.50;;;;;;;;;;5071690;28;20031;-86
2022/03/19 02:21:50;;;;;;;7.30;3.83;;;;;;;;;;5060171;28;20020;-87
2022/03/19 02:27:02;;;;;;;6.57;3.22;;;;;;;;;;5063891;28;20047;-86
2022/03/19 02:29:27;;;;;;;6.40;3.13;;;;;;;;;;5066711;28;20027;-89
2022/03/19 02:31:55;;;;;;;5.88;3.00;;;;;;;;;;5065425;28;20032;-88
2022/03/19 02:34:21;;;;;;;8.18;4.63;;;;;;;;;;5071148;28;20064;-86
2022/03/19 02:36:47;;;;;;;9.63;3.35;;;;;;;;;;5062394;28;20514;-87
2022/03/19 02:39:18;;;;;;;6.05;3.30;;;;;;;;;;5060750;28;20055;-85
2022/03/19 02:41:45;;;;;;;4.82;3.38;;;;;;;;;;5068540;28;20033;-86
2022/03/19 02:44:12;;;;;;;5.47;3.70;;;;;;;;;;5071798;28;20499;-85
2022/03/19 02:46:42;;;;;;;7.20;4.65;;;;;;;;;;5054400;28;20036;-85
2022/03/19 02:49:07;;;;;;;7.03;4.25;;;;;;;;;;5063266;28;20083;-88
2022/03/19 02:51:38;;;;;;;8.15;3.63;;;;;;;;;;5064380;28;20036;-86
2022/03/19 02:54:05;;;;;;;6.15;3.78;;;;;;;;;;5069437;28;20024;-87
2022/03/19 02:56:35;;;;;;;4.90;3.35;;;;;;;;;;5061124;28;20028;-85
2022/03/19 02:59:25;;;;;;;6.00;3.80;;;;;;;;;;5048729;28;20066;-86
2022/03/19 03:01:53;;;;;;;13.35;6.40;;;;;;;;;;5057558;28;20396;-87
2022/03/19 03:04:20;;;;;;;12.18;4.75;;;;;;;;;;5066077;28;20028;-87
2022/03/19 03:06:48;;;;;;;6.82;4.47;;;;;;;;;;5070173;28;20025;-85
2022/03/19 03:09:14;;;;;;;8.63;4.63;;;;;;;;;;5058645;28;20391;-86
2022/03/19 03:11:40;;;;;;;15.82;5.20;;;;;;;;;;5063483;28;20359;-86
2022/03/19 03:14:13;;;;;;;7.55;4.43;;;;;;;;;;5052160;28;20535;-87
2022/03/19 03:16:40;;;;;;;12.40;6.22;;;;;;;;;;5057464;28;20020;-87
2022/03/19 03:19:08;;;;;;;8.63;4.18;;;;;;;;;;5058333;28;20035;-87
2022/03/19 03:21:35;;;;;;;7.53;3.97;;;;;;;;;;5072410;28;20029;-85
2022/03/19 03:24:02;;;;;;;13.27;4.43;;;;;;;;;;5049729;28;20519;-87
2022/03/19 03:26:28;;;;;;;10.48;4.95;;;;;;;;;;5059468;28;20452;-86
2022/03/19 03:28:53;;;;;;;9.80;4.15;;;;;;;;;;5056855;28;20494;-88
2022/03/19 03:31:19;;;;;;;13.02;5.85;;;;;;;;;;5068412;28;20107;-85
2022/03/19 03:33:45;;;;;;;10.00;5.13;;;;;;;;;;5061339;28;20489;-88
2022/03/19 03:36:11;;;;;;;6.80;4.22;;;;;;;;;;5064783;28;20104;-86
2022/03/19 03:38:36;;;;;;;8.60;4.60;;;;;;;;;;5062644;28;20525;-87
2022/03/19 03:41:02;;;;;;;7.95;4.97;;;;;;;;;;5064789;28;20107;-87
2022/03/19 03:43:28;;;;;;;8.45;5.05;;;;;;;;;;5073259;28;20515;-87
2022/03/19 03:45:53;;;;;;;7.53;4.57;;;;;;;;;;5062648;28;20029;-87
2022/03/19 03:48:19;;;;;;;8.88;5.20;;;;;;;;;;5063099;28;20036;-84
2022/03/19 03:50:47;;;;;;;10.38;6.10;;;;;;;;;;5065412;28;20033;-87
2022/03/19 03:53:12;;;;;;;8.70;4.40;;;;;;;;;;5058971;28;20028;-86
2022/03/19 03:55:38;;;;;;;8.82;4.85;;;;;;;;;;5055588;28;20042;-87
2022/03/19 03:58:04;;;;;;;8.40;5.25;;;;;;;;;;5063044;28;20034;-87
2022/03/19 04:00:34;;;;;;;5.47;3.97;;;;;;;;;;5063004;28;20120;-86
2022/03/19 04:02:59;;;;;;;6.00;3.65;;;;;;;;;;5052705;28;20048;-87
2022/03/19 04:05:25;;;;;;;8.45;5.03;;;;;;;;;;5051456;28;20070;-87
2022/03/19 04:07:51;;;;;;;11.02;5.45;;;;;;;;;;5066853;28;20031;-86
2022/03/19 04:10:17;;;;;;;6.80;3.80;;;;;;;;;;5059844;28;20041;-87
2022/03/19 04:12:43;;;;;;;15.23;8.68;;;;;;;;;;5063596;28;20125;-87
2022/03/19 04:15:10;;;;;;;12.15;5.10;;;;;;;;;;5065914;28;20028;-84
2022/03/19 04:17:36;;;;;;;9.65;4.35;;;;;;;;;;5064727;28;20078;-88
2022/03/19 04:20:08;;;;;;;9.38;4.13;;;;;;;;;;5068626;28;20429;-87
2022/03/19 04:22:38;;;;;;;7.15;3.97;;;;;;;;;;5051355;28;20033;-86
2022/03/19 04:25:18;;;;;;;8.43;4.28;;;;;;;;;;5068924;28;20067;-87
2022/03/19 04:27:46;;;;;;;5.07;3.15;;;;;;;;;;5052813;28;20059;-86
2022/03/19 04:30:14;;;;;;;6.53;3.00;;;;;;;;;;5061322;28;20051;-85
2022/03/19 04:33:00;;;;;;;6.43;3.40;;;;;;;;;;5065929;28;20039;-87
2022/03/19 04:38:14;;;;;;;5.22;2.97;;;;;;;;;;5058963;28;20552;-87
2022/03/19 04:40:41;;;;;;;6.07;3.38;;;;;;;;;;5060080;28;20048;-87
2022/03/19 04:43:07;;;;;;;5.22;3.33;;;;;;;;;;5048559;28;20464;-87
2022/03/19 04:45:34;;;;;;;5.35;2.92;;;;;;;;;;5047021;28;20484;-87
2022/03/19 04:47:59;;;;;;;3.50;2.38;;;;;;;;;;5048644;28;20033;-86
2022/03/19 04:50:25;;;;;;;4.35;3.13;;;;;;;;;;5054422;28;20075;-86
2022/03/19 04:52:52;;;;;;;7.07;4.65;;;;;;;;;;5047097;28;20416;-86
2022/03/19 04:55:17;;;;;;;6.85;4.30;;;;;;;;;;5049166;28;20029;-87
2022/03/19 04:57:43;;;;;;;7.10;3.97;;;;;;;;;;5050942;28;20036;-86
2022/03/19 05:00:11;;;;;;;7.32;4.85;;;;;;;;;;5054070;28;20048;-86
2022/03/19 05:02:37;;;;;;;7.28;4.30;;;;;;;;;;5050470;28;20025;-84
2022/03/19 05:05:03;;;;;;;5.25;4.15;;;;;;;;;;5055264;28;20059;-87
2022/03/19 05:07:28;;;;;;;4.78;2.92;;;;;;;;;;5044675;28;20385;-86
2022/03/19 05:12:45;;;;;;;7.43;3.22;;;;;;;;;;5050267;28;20036;-86
2022/03/19 05:15:13;;;;;;;5.35;3.42;;;;;;;;;;5059663;28;20037;-86
2022/03/19 05:17:40;;;;;;;4.72;3.25;;;;;;;;;;5060374;28;20091;-86
2022/03/19 05:20:06;;;;;;;9.23;3.28;;;;;;;;;;5058970;28;20033;-86
2022/03/19 05:22:32;;;;;;;3.80;2.92;;;;;;;;;;5058813;28;20070;-87
2022/03/19 05:24:58;;;;;;;6.65;3.38;;;;;;;;;;5071064;28;20032;-86
2022/03/19 05:27:24;;;;;;;6.25;4.68;;;;;;;;;;5068276;28;20109;-86
2022/03/19 05:29:50;;;;;;;8.80;5.15;;;;;;;;;;5055652;28;20389;-86
2022/03/19 05:32:16;;;;;;;8.77;4.90;;;;;;;;;;5058097;28;20025;-86
2022/03/19 05:34:42;;;;;;;11.52;6.60;;;;;;;;;;5068074;28;20079;-87
2022/03/19 05:37:09;;;;;;;12.98;7.00;;;;;;;;;;5058602;28;20425;-86
2022/03/19 05:39:35;;;;;;;13.43;7.90;;;;;;;;;;5059077;28;20059;-87
2022/03/19 05:42:01;;;;;;;14.40;8.55;;;;;;;;;;5070039;28;20024;-86
2022/03/19 05:44:26;;;;;;;14.30;7.40;;;;;;;;;;5063286;28;20028;-86
2022/03/19 05:46:52;;;;;;;16.40;7.93;;;;;;;;;;5071423;28;20036;-87
2022/03/19 05:49:17;;;;;;;11.77;6.80;;;;;;;;;;5068993;28;20108;-86
2022/03/19 05:51:43;;;;;;;14.45;8.27;;;;;;;;;;5055628;28;20025;-85
2022/03/19 05:54:10;;;;;;;12.77;7.03;;;;;;;;;;5063886;28;20029;-87
2022/03/19 05:56:36;;;;;;;10.07;7.75;;;;;;;;;;5061830;28;20029;-86
2022/03/19 05:59:03;;;;;;;12.57;8.43;;;;;;;;;;5063502;28;20365;-87
2022/03/19 06:01:28;;;;;;;15.30;9.10;;;;;;;;;;5065574;28;20385;-86
2022/03/19 06:03:59;;;;;;;16.95;9.40;;;;;;;;;;5059903;28;20043;-87
2022/03/19 06:06:25;;;;;;;19.13;11.15;;;;;;;;;;5062285;28;20387;-87
2022/03/19 06:08:51;;;;;;;18.38;9.55;;;;;;;;;;5060895;28;20082;-87
2022/03/19 06:11:17;;;;;;;20.17;9.68;;;;;;;;;;5057782;28;20157;-87
2022/03/19 06:13:43;;;;;;;15.13;10.10;;;;;;;;;;5055518;28;20143;-88
2022/03/19 06:16:09;;;;;;;17.05;9.38;;;;;;;;;;5067226;28;20459;-88
2022/03/19 06:18:34;;;;;;;15.80;10.25;;;;;;;;;;5062054;28;20119;-87
2022/03/19 06:21:00;;;;;;;15.52;10.15;;;;;;;;;;5064005;28;20031;-86
2022/03/19 06:23:26;;;;;;;15.70;9.93;;;;;;;;;;5055691;28;20048;-86
2022/03/19 06:25:51;;;;;;;17.13;11.30;;;;;;;;;;5050509;28;20040;-85
2022/03/19 06:28:17;;;;;;;17.50;11.25;;;;;;;;;;5071250;28;20173;-86
2022/03/19 06:30:43;;;;;;;22.13;10.80;;;;;;;;;;5060201;28;20037;-87
2022/03/19 06:33:11;;;;;;;16.65;9.27;;;;;;;;;;5057251;28;20025;-87
2022/03/19 06:38:25;;;;;;;14.57;8.98;;;;;;;;;;5068518;28;20093;-86
2022/03/19 06:40:51;;;;;;;13.23;8.65;;;;;;;;;;5051283;28;20025;-86
2022/03/19 06:43:16;;;;;;;13.13;7.72;;;;;;;;;;5059753;28;20025;-86
2022/03/19 06:45:42;;;;;;;11.70;6.97;;;;;;;;;;5053855;28;20110;-87
2022/03/19 06:48:07;;;;;;;10.57;5.85;;;;;;;;;;5049527;28;20028;-88
2022/03/19 06:50:33;;;;;;;8.95;4.80;;;;;;;;;;5055569;28;20032;-86
2022/03/19 06:52:58;;;;;;;17.90;8.45;;;;;;;;;;5053129;28;20059;-85
2022/03/19 06:55:24;;;;;;;16.65;10.18;;;;;;;;;;5058224;28;20107;-85
2022/03/19 06:57:49;;;;;;;10.40;6.10;;;;;;;;;;5053801;28;20488;-86
2022/03/19 07:00:15;;;;;;;12.15;6.25;;;;;;;;;;5052724;28;20053;-85
2022/03/19 07:02:51;;;;;;;11.88;6.25;;;;;;;;;;5057366;28;20037;-85
2022/03/19 07:05:21;;;;;;;11.30;5.68;;;;;;;;;;5050792;28;20032;-85
2022/03/19 07:07:47;;;;;;;;;;;;;;;;;;5053700;28;20033;-85
2022/03/19 07:10:13;;;;;;;11.73;6.25;;;;;;;;;;5057453;28;20273;-86
2022/03/19 07:12:45;;;;;;;8.50;4.85;;;;;;;;;;5054656;28;20060;-85
2022/03/19 07:15:14;;;;;;;8.93;5.15;;;;;;;;;;5052329;28;20028;-85
2022/03/19 07:17:41;;;;;;;13.30;6.43;;;;;;;;;;5055030;28;20024;-86
2022/03/19 07:20:07;;;;;;;10.43;5.57;;;;;;;;;;5053758;28;20123;-85
2022/03/19 07:22:58;;;;;;;9.48;4.90;;;;;;;;;;5049615;28;20433;-86
2022/03/19 07:25:32;;;;;;;10.60;5.05;;;;;;;;;;5065544;28;20496;-86
2022/03/19 07:28:00;;;;;;;9.25;6.75;;;;;;;;;;5054251;28;20056;-84
2022/03/19 07:30:26;;;;;;;10.45;5.22;;;;;;;;;;5068766;28;20028;-85
2022/03/19 07:32:52;;;;;;;10.23;5.93;;;;;;;;;;5052498;28;20171;-84
2022/03/19 07:35:18;;;;;;;12.00;6.68;;;;;;;;;;5052539;28;20484;-86
2022/03/19 07:37:45;;;;;;;8.27;4.75;;;;;;;;;;5052288;28;20029;-86
2022/03/19 07:40:14;;;;;;;8.77;5.50;;;;;;;;;;5053340;28;20064;-84
2022/03/19 07:42:40;;;;;;;11.30;5.83;;;;;;;;;;5069449;28;20023;-86
2022/03/19 07:45:07;;;;;;;10.13;6.20;;;;;;;;;;5063189;28;20036;-86
2022/03/19 07:47:33;;;;;;;8.80;5.22;;;;;;;;;;5065051;28;20032;-82
2022/03/19 07:49:59;;;;;;;10.45;5.88;;;;;;;;;;5055528;28;20040;-82
2022/03/19 07:52:25;;;;;;;10.40;6.25;;;;;;;;;;5059395;28;20414;-84
2022/03/19 07:54:54;;;;;;;8.93;5.10;;;;;;;;;;5059327;28;20064;-86
2022/03/19 07:57:21;;;;;;;8.00;5.18;;;;;;;;;;5050539;28;20037;-86
2022/03/19 07:59:47;;;;;;;10.90;6.45;;;;;;;;;;5053421;28;20063;-85
2022/03/19 08:02:13;;;;;;;9.07;6.18;;;;;;;;;;5063205;28;20024;-86
2022/03/19 08:04:38;;;;;;;13.05;6.72;;;;;;;;;;5063277;28;20040;-87
2022/03/19 08:07:04;;;;;;;10.25;5.22;;;;;;;;;;5055554;28;20025;-84
2022/03/19 08:09:30;;;;;;;10.10;5.55;;;;;;;;;;5056607;28;20025;-86
2022/03/19 08:11:56;;;;;;;8.75;5.85;;;;;;;;;;5052921;28;20392;-81
2022/03/19 08:14:21;;;;;;;10.40;5.68;;;;;;;;;;5055028;28;20037;-82
2022/03/19 08:16:47;;;;;;;13.65;6.50;;;;;;;;;;5057648;28;20104;-84
2022/03/19 08:19:13;;;;;;;10.73;6.53;;;;;;;;;;5060998;28;20040;-85
2022/03/19 08:21:43;;;;;;;12.30;6.40;;;;;;;;;;5059473;28;20455;-82
2022/03/19 08:24:10;;;;;;;9.57;5.75;;;;;;;;;;5056963;28;20491;-84
2022/03/19 08:26:36;;;;;;;8.63;5.88;;;;;;;;;;5058497;28;20453;-86
2022/03/19 08:29:03;;;;;;;9.25;5.25;;;;;;;;;;5062830;28;20365;-83
2022/03/19 08:31:29;;;;;;;8.60;5.65;;;;;;;;;;5055671;28;20025;-83
2022/03/19 08:33:56;;;;;;;10.27;5.15;;;;;;;;;;5055894;28;20453;-82
2022/03/19 08:36:22;;;;;;;15.07;7.60;;;;;;;;;;5055307;28;20446;-88
2022/03/19 08:41:32;;;;;;;14.32;8.60;;;;;;;;;;5050435;28;20032;-86
2022/03/19 08:43:58;;;;;;;11.10;6.50;;;;;;;;;;5061307;28;20388;-85
2022/03/19 08:46:24;;;;;;;12.70;7.68;;;;;;;;;;5053299;28;20029;-86
2022/03/19 08:48:50;;;;;;;13.13;7.28;;;;;;;;;;5052837;28;20473;-82
2022/03/19 08:54:00;;;;;;;14.00;7.13;;;;;;;;;;5060611;28;20090;-83
2022/03/19 08:56:25;;;;;;;11.23;7.47;;;;;;;;;;5069807;28;20418;-82
2022/03/19 08:58:51;;;;;;;13.35;7.10;;;;;;;;;;5060440;28;20444;-85
2022/03/19 09:01:16;;;;;;;10.05;6.30;;;;;;;;;;5056510;28;20033;-84
2022/03/19 09:03:42;;;;;;;11.75;6.90;;;;;;;;;;5069776;28;20138;-83
2022/03/19 09:06:10;;;;;;;14.10;8.07;;;;;;;;;;5062836;28;20393;-82
2022/03/19 09:08:35;;;;;;;15.43;7.00;;;;;;;;;;5069754;28;20024;-82
2022/03/19 09:11:01;;;;;;;10.55;6.47;;;;;;;;;;5058203;28;20505;-83
2022/03/19 09:13:26;;;;;;;16.48;7.75;;;;;;;;;;5052826;28;20469;-82
2022/03/19 09:15:52;;;;;;;8.82;5.68;;;;;;;;;;5067017;28;20247;-82
2022/03/19 09:18:20;;;;;;;13.65;6.47;;;;;;;;;;5063743;28;20032;-83
2022/03/19 09:20:45;;;;;;;13.02;7.15;;;;;;;;;;5058452;28;20093;-85
2022/03/19 09:23:11;;;;;;;14.00;7.00;;;;;;;;;;5058648;28;20103;-83
2022/03/19 09:25:37;;;;;;;11.15;5.97;;;;;;;;;;5056788;28;20028;-86
2022/03/19 09:28:03;;;;;;;10.55;6.20;;;;;;;;;;5062560;28;20377;-83
2022/03/19 09:30:28;;;;;;;10.05;6.03;;;;;;;;;;5069399;28;20032;-83
2022/03/19 09:32:57;;;;;;;11.18;5.90;;;;;;;;;;5059914;28;20036;-84
2022/03/19 09:35:24;;;;;;;10.48;6.85;;;;;;;;;;5068314;28;20074;-86
2022/03/19 09:37:50;;;;;;;13.65;6.70;;;;;;;;;;5070735;28;20041;-82
2022/03/19 09:40:16;;;;;;;10.38;6.30;;;;;;;;;;5067106;28;20383;-83
2022/03/19 09:42:50;;;;;;;13.70;7.18;;;;;;;;;;5070514;28;20028;-83
2022/03/19 09:45:21;;;;;;;9.20;6.88;;;;;;;;;;5063275;28;20033;-84
2022/03/19 09:47:48;;;;;;;14.55;6.90;;;;;;;;;;5048882;28;20116;-83
2022/03/19 09:50:14;;;;;;;11.23;6.82;;;;;;;;;;5049053;28;20044;-85
2022/03/19 09:52:42;;;;;;;10.48;6.88;;;;;;;;;;5048882;28;20104;-87
2022/03/19 09:55:12;;;;;;;11.00;6.90;;;;;;;;;;5053688;28;20531;-84
2022/03/19 09:57:38;;;;;;;10.35;6.53;;;;;;;;;;5069460;28;20028;-86
2022/03/19 10:00:04;;;;;;;9.73;6.65;;;;;;;;;;5069356;28;20024;-86
2022/03/19 10:02:29;;;;;;;9.75;6.45;;;;;;;;;;5069198;28;20479;-84
2022/03/19 10:04:57;;;;;;;9.35;6.47;;;;;;;;;;5071595;28;20028;-85
2022/03/19 10:10:09;;;;;;;11.82;7.00;;;;;;;;;;5050886;28;20060;-84
2022/03/19 10:12:36;;;;;;;10.55;7.00;;;;;;;;;;5050533;28;20061;-84
2022/03/19 10:15:09;;;;;;;12.43;7.15;;;;;;;;;;5058970;28;20025;-83
2022/03/19 10:17:36;;;;;;;13.82;7.35;;;;;;;;;;5063124;28;20024;-84
2022/03/19 10:20:09;;;;;;;9.63;6.47;;;;;;;;;;5053587;28;20036;-86
2022/03/19 10:22:44;;;;;;;9.32;6.15;;;;;;;;;;5069267;28;20451;-86
2022/03/19 10:25:12;;;;;;;9.95;6.88;;;;;;;;;;5070169;28;20020;-84
2022/03/19 10:27:40;;;;;;;9.23;6.72;;;;;;;;;;5064020;28;20469;-84
2022/03/19 10:30:08;;;;;;;11.52;6.35;;;;;;;;;;5066533;28;20053;-86
2022/03/19 10:32:35;;;;;;;12.32;7.63;;;;;;;;;;5056418;28;20366;-83
2022/03/19 10:35:02;;;;;;;11.93;7.47;;;;;;;;;;5054999;28;20114;-87
2022/03/19 10:37:39;;;;;;;13.65;6.30;;;;;;;;;;5061777;28;20461;-83
2022/03/19 10:40:08;;;;;;;13.52;8.38;;;;;;;;;;5054062;28;20021;-86
2022/03/19 10:42:41;;;;;;;13.88;8.15;;;;;;;;;;5069013;28;20110;-83
2022/03/19 10:45:12;;;;;;;10.82;6.38;;;;;;;;;;5073567;28;20036;-88
2022/03/19 10:47:46;;;;;;;10.45;7.10;;;;;;;;;;5068336;28;20029;-85
2022/03/19 10:50:18;;;;;;;13.18;7.13;;;;;;;;;;5061533;28;20033;-83
2022/03/19 10:52:46;;;;;;;9.27;5.72;;;;;;;;;;5059099;28;20388;-85
2022/03/19 10:55:12;;;;;;;12.77;6.57;;;;;;;;;;5073370;28;20384;-82
2022/03/19 10:57:38;;;;;;;9.25;5.22;;;;;;;;;;5069140;28;20025;-82
2022/03/19 11:00:04;;;;;;;7.72;5.97;;;;;;;;;;5071328;28;20478;-84
2022/03/19 11:02:31;;;;;;;10.27;6.80;;;;;;;;;;5051925;28;20031;-84
2022/03/19 11:05:00;;;;;;;8.25;5.38;;;;;;;;;;5051952;28;20017;-86
2022/03/19 11:07:32;;;;;;;10.93;6.90;;;;;;;;;;5064239;28;20025;-87
2022/03/19 11:09:58;;;;;;;15.13;6.45;;;;;;;;;;5061660;28;20139;-85
2022/03/19 11:12:27;;;;;;;9.23;5.80;;;;;;;;;;5070237;28;20028;-83
2022/03/19 11:14:56;;;;;;;8.60;5.32;;;;;;;;;;5064548;28;20049;-85
2022/03/19 11:17:36;;;;;;;9.95;6.18;;;;;;;;;;5070002;28;20037;-84
2022/03/19 11:20:06;;;;;;;12.93;7.38;;;;;;;;;;5056828;28;20078;-85
2022/03/19 11:22:40;;;;;;;37.85;15.77;;;;;;;;;;5072013;28;20030;-83
2022/03/19 11:25:16;;;;;;;23.60;11.80;;;;;;;;;;5067674;28;20028;-84
2022/03/19 11:27:44;;;;;;;9.35;6.20;;;;;;;;;;5064133;28;20528;-86
2022/03/19 11:30:30;;;;;;;11.63;6.30;;;;;;;;;;5060732;28;20024;-86
2022/03/19 11:33:05;;;;;;;16.02;8.15;;;;;;;;;;5072602;28;20383;-88
2022/03/19 11:35:32;;;;;;;31.67;12.35;;;;;;;;;;5062715;28;20036;-85
2022/03/19 11:37:59;;;;;;;8.25;6.28;;;;;;;;;;5052493;28;20033;-87
2022/03/19 11:40:35;;;;;;;9.35;5.25;;;;;;;;;;5071300;28;20032;-87
2022/03/19 11:43:02;;;;;;;7.80;5.13;;;;;;;;;;5052582;28;20078;-87
2022/03/19 11:45:56;;;;;;;10.02;6.05;;;;;;;;;;5052848;28;20108;-84
2022/03/19 11:48:48;;;;;;;19.55;8.90;;;;;;;;;;5062257;28;20033;-85
2022/03/19 11:51:24;;;;;;;21.63;10.13;;;;;;;;;;5060228;28;20032;-86
2022/03/19 11:53:51;;;;;;;29.05;13.27;;;;;;;;;;5052410;28;20029;-86
2022/03/19 11:56:19;;;;;;;18.92;10.20;;;;;;;;;;5070673;28;20032;-86
2022/03/19 11:58:46;;;;;;;15.80;9.57;;;;;;;;;;5070670;28;20024;-85
2022/03/19 12:01:12;;;;;;;17.27;10.27;;;;;;;;;;5062450;28;20111;-84
2022/03/19 12:04:05;;;;;;;13.25;8.15;;;;;;;;;;5053744;28;20021;-85
2022/03/19 12:06:37;;;;;;;9.13;4.47;;;;;;;;;;5048245;28;20033;-86
2022/03/19 12:09:02;;;;;;;13.38;8.05;;;;;;;;;;5051981;28;20025;-85
2022/03/19 12:11:28;;;;;;;19.48;9.32;;;;;;;;;;5049547;28;20044;-82
2022/03/19 12:13:56;;;;;;;9.15;6.00;;;;;;;;;;5063206;28;20036;-84
2022/03/19 12:16:41;;;;;;;7.93;5.40;;;;;;;;;;5050005;28;20036;-82
2022/03/19 12:19:08;;;;;;;6.80;5.25;;;;;;;;;;5060193;28;20033;-83
2022/03/19 12:21:40;;;;;;;6.78;4.68;;;;;;;;;;5060369;28;20035;-83
2022/03/19 12:24:14;;;;;;;8.95;5.95;;;;;;;;;;5058429;28;20020;-83
2022/03/19 12:26:51;;;;;;;9.52;5.93;;;;;;;;;;5063413;28;20448;-82
2022/03/19 12:29:19;;;;;;;8.70;5.45;;;;;;;;;;5057899;28;20096;-83
2022/03/19 12:31:50;;;;;;;8.50;5.35;;;;;;;;;;5051662;28;20029;-87
2022/03/19 12:34:23;;;;;;;9.95;6.13;;;;;;;;;;5054501;28;20033;-84
2022/03/19 12:36:51;;;;;;;12.48;6.72;;;;;;;;;;5054334;28;20473;-85
2022/03/19 12:39:17;;;;;;;6.70;5.38;;;;;;;;;;5050499;28;20028;-83
2022/03/19 12:41:44;;;;;;;11.75;5.35;;;;;;;;;;5056729;28;20438;-84
2022/03/19 12:44:21;;;;;;;7.80;5.15;;;;;;;;;;5062806;28;20393;-83
2022/03/19 12:46:53;;;;;;;8.93;5.03;;;;;;;;;;5054985;28;20039;-83
2022/03/19 12:49:19;;;;;;;8.52;5.00;;;;;;;;;;5063210;28;20111;-84
2022/03/19 12:51:47;;;;;;;6.93;5.25;;;;;;;;;;5057601;28;20579;-86
2022/03/19 12:54:25;;;;;;;15.02;7.97;;;;;;;;;;5056754;28;20067;-82
2022/03/19 12:56:52;;;;;;;10.10;6.97;;;;;;;;;;5056090;28;20127;-83
2022/03/19 12:59:26;;;;;;;10.45;5.82;;;;;;;;;;5061951;28;20025;-83
2022/03/19 13:01:53;;;;;;;7.65;4.93;;;;;;;;;;5062784;28;20073;-85
2022/03/19 13:04:21;;;;;;;9.10;5.55;;;;;;;;;;5056377;28;20028;-85
2022/03/19 13:06:47;;;;;;;7.38;4.93;;;;;;;;;;5063342;28;20111;-85
2022/03/19 13:09:12;;;;;;;8.40;5.43;;;;;;;;;;5065029;28;20167;-87
2022/03/19 13:11:43;;;;;;;12.00;6.50;;;;;;;;;;5055616;28;20041;-86
2022/03/19 13:14:12;;;;;;;9.52;4.95;;;;;;;;;;5062624;28;20028;-86
2022/03/19 13:16:38;;;;;;;9.25;5.60;;;;;;;;;;5065138;28;20060;-85
2022/03/19 13:19:07;;;;;;;8.63;5.95;;;;;;;;;;5062283;28;20052;-88
2022/03/19 13:21:34;;;;;;;8.93;6.50;;;;;;;;;;5060475;28;20044;-88
2022/03/19 13:24:02;;;;;;;9.60;5.78;;;;;;;;;;5047875;28;20084;-87
2022/03/19 13:26:33;;;;;;;9.27;5.53;;;;;;;;;;5057970;28;20032;-87
2022/03/19 13:29:07;;;;;;;16.33;6.90;;;;;;;;;;5060220;28;20546;-84
2022/03/19 13:31:37;;;;;;;12.50;7.38;;;;;;;;;;5062922;28;20060;-87
2022/03/19 13:34:04;;;;;;;;;;;;;;;;;;5067342;28;20491;-85
2022/03/19 13:36:32;;;;;;;11.93;6.15;;;;;;;;;;5062033;28;19908;-86
2022/03/19 13:39:00;;;;;;;8.55;5.47;;;;;;;;;;5059217;28;20494;-86
2022/03/19 13:41:26;;;;;;;13.68;8.10;;;;;;;;;;5061867;28;20052;-86
2022/03/19 13:43:52;;;;;;;8.10;5.43;;;;;;;;;;5061467;28;20089;-85
2022/03/19 13:46:20;;;;;;;7.68;5.90;;;;;;;;;;5066705;28;20029;-87
2022/03/19 13:48:47;;;;;;;7.65;5.38;;;;;;;;;;5062528;28;20029;-86
2022/03/19 13:51:13;;;;;;;16.92;9.70;;;;;;;;;;5060299;28;20021;-84
2022/03/19 13:53:42;;;;;;;7.97;5.65;;;;;;;;;;5059435;28;20040;-84
2022/03/19 13:56:09;;;;;;;11.30;7.65;;;;;;;;;;5057766;28;20033;-86
2022/03/19 13:58:35;;;;;;;10.45;6.13;;;;;;;;;;5064935;28;20035;-86
2022/03/19 14:01:11;;;;;;;10.15;6.65;;;;;;;;;;5055382;28;20373;-88
2022/03/19 14:03:40;;;;;;;14.98;7.47;;;;;;;;;;5064169;28;20059;-86
2022/03/19 14:06:09;;;;;;;18.48;9.93;;;;;;;;;;5066361;28;20487;-86
2022/03/19 14:08:39;;;;;;;11.47;8.20;;;;;;;;;;5063598;28;20028;-84
2022/03/19 14:11:14;;;;;;;;;;;;;;;;;;5064358;28;20040;-85
2022/03/19 14:13:45;;;;;;;8.68;5.47;;;;;;;;;;5060959;28;20269;-87
2022/03/19 14:16:15;;;;;;;26.02;9.57;;;;;;;;;;5055629;28;20024;-87
2022/03/19 14:18:41;;;;;;;;;;;;;;;;;;5062783;28;20496;-86
2022/03/19 14:21:08;;;;;;;6.70;4.35;;;;;;;;;;5063753;28;19917;-87
2022/03/19 14:23:36;;;;;;;10.00;5.50;;;;;;;;;;5068960;28;20035;-86
2022/03/19 14:26:03;;;;;;;7.18;4.75;;;;;;;;;;5066492;28;20035;-86
2022/03/19 14:28:30;;;;;;;20.00;8.90;;;;;;;;;;5066369;28;20050;-87
2022/03/19 14:30:58;;;;;;;23.48;10.23;;;;;;;;;;5059214;28;20033;-86
2022/03/19 14:33:24;;;;;;;21.88;10.85;;;;;;;;;;5059063;28;20028;-89
2022/03/19 14:36:02;;;;;;;9.45;5.47;;;;;;;;;;5057364;28;20078;-84
2022/03/19 14:38:38;;;;;;;9.95;6.20;;;;;;;;;;5072417;28;20069;-86
2022/03/19 14:41:09;;;;;;;19.70;12.35;;;;;;;;;;5060476;28;20063;-85
2022/03/19 14:43:35;;;;;;;21.45;11.50;;;;;;;;;;5061349;28;20017;-86
2022/03/19 14:46:03;;;;;;;17.50;9.40;;;;;;;;;;5071110;28;20044;-87
2022/03/19 14:48:30;;;;;;;17.85;7.85;;;;;;;;;;5056208;28;20484;-87
2022/03/19 14:50:58;;;;;;;13.07;6.93;;;;;;;;;;5063077;28;20027;-85
2022/03/19 14:53:24;;;;;;;8.88;5.10;;;;;;;;;;5065564;28;20040;-87
2022/03/19 14:55:52;;;;;;;12.10;4.50;;;;;;;;;;5064136;28;20033;-87
2022/03/19 14:58:18;;;;;;;8.73;5.25;;;;;;;;;;5067105;28;20036;-86
2022/03/19 15:00:44;;;;;;;21.40;8.82;;;;;;;;;;5066493;28;20028;-88